sensor_id;sensor_type;location;lat;lon;timestamp;pressure;altitude;pressure_sealevel;temperature;humidity
44825;BME280;30542;47.928;2.138;2022-07-15T00:03:25;100852.94;;;26.20;36.23
44825;BME280;30542;47.928;2.138;2022-07-15T00:08:25;100861.03;;;26.20;36.06
44825;BME280;30542;47.928;2.138;2022-07-15T00:13:27;100862.94;;;26.20;36.32
44825;BME280;30542;47.928;2.138;2022-07-15T00:18:27;100860.81;;;26.17;36.59
44825;BME280;30542;47.928;2.138;2022-07-15T00:23:28;100875.66;;;26.19;36.69
44825;BME280;30542;47.928;2.138;2022-07-15T00:28:28;100879.22;;;26.15;36.45
44825;BME280;30542;47.928;2.138;2022-07-15T00:33:28;100875.41;;;26.16;36.59
44825;BME280;30542;47.928;2.138;2022-07-15T00:38:29;100866.81;;;26.14;36.89
44825;BME280;30542;47.928;2.138;2022-07-15T00:43:29;100869.22;;;26.15;36.99
44825;BME280;30542;47.928;2.138;2022-07-15T00:48:30;100867.09;;;26.12;36.84
44825;BME280;30542;47.928;2.138;2022-07-15T00:53:33;100870.41;;;26.09;36.72
44825;BME280;30542;47.928;2.138;2022-07-15T00:58:40;100876.06;;;26.08;36.91
44825;BME280;30542;47.928;2.138;2022-07-15T01:03:40;100868.34;;;26.01;36.75
44825;BME280;30542;47.928;2.138;2022-07-15T01:08:41;100872.88;;;26.06;36.64
44825;BME280;30542;47.928;2.138;2022-07-15T01:13:42;100872.56;;;26.07;36.92
44825;BME280;30542;47.928;2.138;2022-07-15T01:18:42;100863.38;;;26.08;36.92
44825;BME280;30542;47.928;2.138;2022-07-15T01:23:43;100867.69;;;26.09;37.06
44825;BME280;30542;47.928;2.138;2022-07-15T01:28:43;100867.69;;;26.09;36.92
44825;BME280;30542;47.928;2.138;2022-07-15T01:33:44;100866.38;;;26.07;36.73
44825;BME280;30542;47.928;2.138;2022-07-15T01:38:45;100852.09;;;26.06;36.95
44825;BME280;30542;47.928;2.138;2022-07-15T01:43:45;100853.97;;;26.06;36.83
44825;BME280;30542;47.928;2.138;2022-07-15T01:48:46;100854.78;;;26.06;36.74
44825;BME280;30542;47.928;2.138;2022-07-15T01:54:04;100858.59;;;26.05;36.58
44825;BME280;30542;47.928;2.138;2022-07-15T01:59:05;100861.56;;;26.03;36.49
44825;BME280;30542;47.928;2.138;2022-07-15T02:04:05;100867.75;;;26.04;36.39
44825;BME280;30542;47.928;2.138;2022-07-15T02:09:06;100876.69;;;26.05;36.13
44825;BME280;30542;47.928;2.138;2022-07-15T02:14:06;100876.72;;;25.99;36.53
44825;BME280;30542;47.928;2.138;2022-07-15T02:19:06;100874.56;;;26.01;36.33
44825;BME280;30542;47.928;2.138;2022-07-15T02:24:08;100878.84;;;26.02;36.11
44825;BME280;30542;47.928;2.138;2022-07-15T02:29:09;100884.81;;;25.99;35.98
44825;BME280;30542;47.928;2.138;2022-07-15T02:34:10;100880.53;;;25.98;36.11
44825;BME280;30542;47.928;2.138;2022-07-15T02:39:10;100880.53;;;25.98;36.18
44825;BME280;30542;47.928;2.138;2022-07-15T02:44:11;100869.72;;;25.98;35.98
44825;BME280;30542;47.928;2.138;2022-07-15T02:49:11;100871.94;;;25.96;36.03
44825;BME280;30542;47.928;2.138;2022-07-15T02:54:11;100854.91;;;25.96;36.00
44825;BME280;30542;47.928;2.138;2022-07-15T02:59:12;100865.69;;;25.96;35.88
44825;BME280;30542;47.928;2.138;2022-07-15T03:04:12;100866.31;;;25.93;35.84
44825;BME280;30542;47.928;2.138;2022-07-15T03:09:12;100865.78;;;25.91;35.71
44825;BME280;30542;47.928;2.138;2022-07-15T03:14:13;100867.69;;;25.90;35.64
44825;BME280;30542;47.928;2.138;2022-07-15T03:19:13;100860.69;;;25.89;35.77
44825;BME280;30542;47.928;2.138;2022-07-15T03:24:14;100868.25;;;25.87;35.55
44825;BME280;30542;47.928;2.138;2022-07-15T03:29:15;100880.69;;;25.88;35.81
44825;BME280;30542;47.928;2.138;2022-07-15T03:34:16;100882.03;;;25.86;35.32
44825;BME280;30542;47.928;2.138;2022-07-15T03:39:17;100874.75;;;25.86;35.45
44825;BME280;30542;47.928;2.138;2022-07-15T03:44:17;100866.66;;;25.86;35.52
44825;BME280;30542;47.928;2.138;2022-07-15T03:49:18;100875.63;;;25.82;35.68
44825;BME280;30542;47.928;2.138;2022-07-15T03:54:18;100875.31;;;25.83;35.70
44825;BME280;30542;47.928;2.138;2022-07-15T03:59:19;100874.69;;;25.67;35.63
44825;BME280;30542;47.928;2.138;2022-07-15T04:04:21;100874.25;;;25.60;35.87
44825;BME280;30542;47.928;2.138;2022-07-15T04:09:21;100881.53;;;25.60;35.64
44825;BME280;30542;47.928;2.138;2022-07-15T04:14:21;100884.81;;;25.57;35.85
44825;BME280;30542;47.928;2.138;2022-07-15T04:19:22;100877.72;;;25.37;35.36
44825;BME280;30542;47.928;2.138;2022-07-15T04:24:23;100886.97;;;25.31;35.00
44825;BME280;30542;47.928;2.138;2022-07-15T04:29:23;100894.03;;;25.26;34.85
44825;BME280;30542;47.928;2.138;2022-07-15T04:34:23;100889.78;;;25.20;35.46
44825;BME280;30542;47.928;2.138;2022-07-15T04:39:24;100899.06;;;25.33;35.58
44825;BME280;30542;47.928;2.138;2022-07-15T04:44:24;100895.34;;;25.29;35.88
44825;BME280;30542;47.928;2.138;2022-07-15T04:49:25;100869.47;;;24.99;35.71
44825;BME280;30542;47.928;2.138;2022-07-15T04:54:44;100911.69;;;25.14;35.55
44825;BME280;30542;47.928;2.138;2022-07-15T04:59:44;100921.13;;;25.11;36.15
44825;BME280;30542;47.928;2.138;2022-07-15T05:04:45;100913.78;;;25.17;36.22
44825;BME280;30542;47.928;2.138;2022-07-15T05:09:47;100921.63;;;25.18;36.49
44825;BME280;30542;47.928;2.138;2022-07-15T05:14:47;100928.59;;;25.19;36.66
44825;BME280;30542;47.928;2.138;2022-07-15T05:19:47;100934.81;;;25.20;36.93
44825;BME280;30542;47.928;2.138;2022-07-15T05:24:48;100942.59;;;25.21;37.05
44825;BME280;30542;47.928;2.138;2022-07-15T05:29:48;100943.97;;;25.19;36.83
44825;BME280;30542;47.928;2.138;2022-07-15T05:34:49;100949.31;;;25.24;37.14
44825;BME280;30542;47.928;2.138;2022-07-15T05:39:49;100942.59;;;25.21;36.98
44825;BME280;30542;47.928;2.138;2022-07-15T05:44:56;100961.16;;;25.28;36.56
44825;BME280;30542;47.928;2.138;2022-07-15T05:49:57;100947.97;;;25.26;36.73
44825;BME280;30542;47.928;2.138;2022-07-15T05:54:58;100957.91;;;25.31;36.92
44825;BME280;30542;47.928;2.138;2022-07-15T05:59:58;100960.09;;;25.24;40.20
44825;BME280;30542;47.928;2.138;2022-07-15T06:04:59;100971.38;;;25.31;40.65
44825;BME280;30542;47.928;2.138;2022-07-15T06:09:59;100978.41;;;25.27;40.59
44825;BME280;30542;47.928;2.138;2022-07-15T06:14:59;100973.03;;;25.27;40.16
44825;BME280;30542;47.928;2.138;2022-07-15T06:20:00;100965.00;;;25.22;39.96
44825;BME280;30542;47.928;2.138;2022-07-15T06:25:00;100977.88;;;25.30;40.39
44825;BME280;30542;47.928;2.138;2022-07-15T06:30:01;100975.44;;;25.28;40.06
44825;BME280;30542;47.928;2.138;2022-07-15T06:35:02;100989.44;;;25.31;39.89
44825;BME280;30542;47.928;2.138;2022-07-15T06:40:03;100997.81;;;25.29;39.48
44825;BME280;30542;47.928;2.138;2022-07-15T06:45:05;100989.75;;;25.24;39.29
44825;BME280;30542;47.928;2.138;2022-07-15T06:50:06;101003.78;;;25.26;39.13
44825;BME280;30542;47.928;2.138;2022-07-15T06:55:06;101000.50;;;25.29;39.31
44825;BME280;30542;47.928;2.138;2022-07-15T07:00:08;100997.00;;;25.28;39.11
44825;BME280;30542;47.928;2.138;2022-07-15T07:05:10;100997.00;;;25.28;38.62
44825;BME280;30542;47.928;2.138;2022-07-15T07:10:10;100995.66;;;25.31;38.94
44825;BME280;30542;47.928;2.138;2022-07-15T07:15:11;100991.84;;;25.32;38.96
44825;BME280;30542;47.928;2.138;2022-07-15T07:20:11;100981.63;;;25.29;38.47
44825;BME280;30542;47.928;2.138;2022-07-15T07:25:11;100972.47;;;25.30;38.37
44825;BME280;30542;47.928;2.138;2022-07-15T07:30:12;100953.84;;;25.28;38.37
44825;BME280;30542;47.928;2.138;2022-07-15T07:35:12;100967.06;;;25.30;38.32
44825;BME280;30542;47.928;2.138;2022-07-15T07:40:13;100962.75;;;25.29;38.16
44825;BME280;30542;47.928;2.138;2022-07-15T07:45:13;100957.09;;;25.31;37.75
44825;BME280;30542;47.928;2.138;2022-07-15T07:50:13;100952.81;;;25.24;37.89
44825;BME280;30542;47.928;2.138;2022-07-15T07:55:14;100961.09;;;25.33;37.66
44825;BME280;30542;47.928;2.138;2022-07-15T08:00:15;100967.88;;;25.31;37.48
44825;BME280;30542;47.928;2.138;2022-07-15T08:05:16;100959.50;;;25.32;37.56
44825;BME280;30542;47.928;2.138;2022-07-15T08:10:18;100963.53;;;25.35;37.08
44825;BME280;30542;47.928;2.138;2022-07-15T08:15:19;100963.28;;;25.31;37.30
44825;BME280;30542;47.928;2.138;2022-07-15T08:20:19;100962.72;;;25.34;37.44
44825;BME280;30542;47.928;2.138;2022-07-15T08:25:20;100975.13;;;25.35;36.63
44825;BME280;30542;47.928;2.138;2022-07-15T08:30:20;100968.94;;;25.29;37.03
44825;BME280;30542;47.928;2.138;2022-07-15T08:35:22;100968.38;;;25.33;37.20
44825;BME280;30542;47.928;2.138;2022-07-15T08:40:22;100968.94;;;25.29;36.92
44825;BME280;30542;47.928;2.138;2022-07-15T08:45:24;100977.00;;;25.35;36.70
44825;BME280;30542;47.928;2.138;2022-07-15T08:50:24;100987.50;;;25.36;36.95
44825;BME280;30542;47.928;2.138;2022-07-15T08:55:26;100981.56;;;25.39;36.85
44825;BME280;30542;47.928;2.138;2022-07-15T09:00:27;100973.16;;;25.41;36.85
44825;BME280;30542;47.928;2.138;2022-07-15T09:05:33;100980.75;;;25.39;36.90
44825;BME280;30542;47.928;2.138;2022-07-15T09:10:43;100984.25;;;25.39;36.73
44825;BME280;30542;47.928;2.138;2022-07-15T09:15:44;100984.25;;;25.39;36.47
44825;BME280;30542;47.928;2.138;2022-07-15T09:20:45;100995.03;;;25.39;36.49
44825;BME280;30542;47.928;2.138;2022-07-15T09:25:49;100980.44;;;25.40;36.33
44825;BME280;30542;47.928;2.138;2022-07-15T09:30:52;100964.31;;;25.35;36.17
44825;BME280;30542;47.928;2.138;2022-07-15T09:36:19;100968.56;;;25.41;36.46
44825;BME280;30542;47.928;2.138;2022-07-15T09:41:30;100968.56;;;25.41;36.28
44825;BME280;30542;47.928;2.138;2022-07-15T09:46:49;100961.00;;;25.43;36.19
44825;BME280;30542;47.928;2.138;2022-07-15T09:51:54;100965.00;;;25.46;36.29
44825;BME280;30542;47.928;2.138;2022-07-15T09:56:54;100957.75;;;25.46;35.98
44825;BME280;30542;47.928;2.138;2022-07-15T10:01:55;100947.47;;;25.48;36.28
44825;BME280;30542;47.928;2.138;2022-07-15T10:06:57;100961.19;;;25.52;36.45
44825;BME280;30542;47.928;2.138;2022-07-15T10:12:03;100950.16;;;25.48;36.66
44825;BME280;30542;47.928;2.138;2022-07-15T10:28:13;100937.72;;;25.52;36.56
44825;BME280;30542;47.928;2.138;2022-07-15T10:33:19;100951.72;;;25.54;36.48
44825;BME280;30542;47.928;2.138;2022-07-15T10:38:32;100940.91;;;25.54;36.50
44825;BME280;30542;47.928;2.138;2022-07-15T10:48:48;100944.44;;;25.55;36.41
44825;BME280;30542;47.928;2.138;2022-07-15T10:53:50;100938.22;;;25.54;36.48
44825;BME280;30542;47.928;2.138;2022-07-15T11:04:19;100941.44;;;25.57;36.53
44825;BME280;30542;47.928;2.138;2022-07-15T11:15:05;100932.78;;;25.60;36.39
44825;BME280;30542;47.928;2.138;2022-07-15T11:20:16;100930.59;;;25.62;36.15
44825;BME280;30542;47.928;2.138;2022-07-15T11:25:31;100924.41;;;25.61;36.45
44825;BME280;30542;47.928;2.138;2022-07-15T11:30:41;100927.91;;;25.62;36.23
44825;BME280;30542;47.928;2.138;2022-07-15T11:35:55;100929.00;;;25.61;36.28
44825;BME280;30542;47.928;2.138;2022-07-15T11:40:59;100932.19;;;25.63;36.04
44825;BME280;30542;47.928;2.138;2022-07-15T11:46:19;100926.59;;;25.59;35.84
44825;BME280;30542;47.928;2.138;2022-07-15T11:51:30;100926.81;;;25.63;35.99
44825;BME280;30542;47.928;2.138;2022-07-15T11:56:30;100931.94;;;25.64;36.28
44825;BME280;30542;47.928;2.138;2022-07-15T12:01:31;100925.13;;;25.67;36.43
44825;BME280;30542;47.928;2.138;2022-07-15T12:06:32;100906.84;;;25.64;36.23
44825;BME280;30542;47.928;2.138;2022-07-15T12:11:37;100912.97;;;25.69;36.42
44825;BME280;30542;47.928;2.138;2022-07-15T12:16:48;100907.28;;;25.71;36.56
44825;BME280;30542;47.928;2.138;2022-07-15T12:21:51;100891.91;;;25.71;36.77
44825;BME280;30542;47.928;2.138;2022-07-15T12:37:03;100893.28;;;25.69;36.74
44825;BME280;30542;47.928;2.138;2022-07-15T12:42:04;100893.28;;;25.69;36.34
44825;BME280;30542;47.928;2.138;2022-07-15T12:47:05;100890.91;;;25.67;36.30
44825;BME280;30542;47.928;2.138;2022-07-15T12:57:34;100871.41;;;25.70;35.65
44825;BME280;30542;47.928;2.138;2022-07-15T13:02:54;100876.53;;;25.72;36.01
44825;BME280;30542;47.928;2.138;2022-07-15T13:07:55;100878.94;;;25.73;35.91
44825;BME280;30542;47.928;2.138;2022-07-15T13:12:55;100883.53;;;25.73;35.94
44825;BME280;30542;47.928;2.138;2022-07-15T13:17:56;100877.03;;;25.74;36.11
44825;BME280;30542;47.928;2.138;2022-07-15T13:22:57;100869.22;;;25.72;36.01
44825;BME280;30542;47.928;2.138;2022-07-15T13:27:58;100874.34;;;25.74;36.17
44825;BME280;30542;47.928;2.138;2022-07-15T13:33:01;100871.38;;;25.75;36.15
44825;BME280;30542;47.928;2.138;2022-07-15T13:38:02;100868.41;;;25.77;36.02
44825;BME280;30542;47.928;2.138;2022-07-15T13:43:03;100875.13;;;25.74;36.38
44825;BME280;30542;47.928;2.138;2022-07-15T13:48:04;100875.66;;;25.76;36.08
44825;BME280;30542;47.928;2.138;2022-07-15T13:53:04;100865.97;;;25.75;36.06
44825;BME280;30542;47.928;2.138;2022-07-15T13:58:05;100865.69;;;25.77;36.04
44825;BME280;30542;47.928;2.138;2022-07-15T14:03:05;100857.59;;;25.77;36.02
44825;BME280;30542;47.928;2.138;2022-07-15T14:08:06;100857.59;;;25.77;36.31
44825;BME280;30542;47.928;2.138;2022-07-15T14:13:06;100848.16;;;25.74;36.15
44825;BME280;30542;47.928;2.138;2022-07-15T14:18:07;100854.59;;;25.78;36.37
44825;BME280;30542;47.928;2.138;2022-07-15T14:23:07;100857.31;;;25.78;36.43
44825;BME280;30542;47.928;2.138;2022-07-15T14:28:08;100864.88;;;25.76;36.15
44825;BME280;30542;47.928;2.138;2022-07-15T14:33:08;100868.41;;;25.77;35.98
44825;BME280;30542;47.928;2.138;2022-07-15T14:38:09;100863.50;;;25.79;35.65
44825;BME280;30542;47.928;2.138;2022-07-15T14:43:09;100854.66;;;25.73;36.17
44825;BME280;30542;47.928;2.138;2022-07-15T14:48:09;100858.41;;;25.77;35.67
44825;BME280;30542;47.928;2.138;2022-07-15T14:53:11;100855.41;;;25.79;35.79
44825;BME280;30542;47.928;2.138;2022-07-15T14:58:12;100855.63;;;25.83;35.82
44825;BME280;30542;47.928;2.138;2022-07-15T15:03:13;100852.06;;;25.87;35.79
44825;BME280;30542;47.928;2.138;2022-07-15T15:08:14;100853.16;;;25.86;35.45
44825;BME280;30542;47.928;2.138;2022-07-15T15:13:14;100851.00;;;25.88;35.54
44825;BME280;30542;47.928;2.138;2022-07-15T15:18:14;100842.88;;;25.88;35.44
44825;BME280;30542;47.928;2.138;2022-07-15T15:23:15;100850.69;;;25.90;35.05
44825;BME280;30542;47.928;2.138;2022-07-15T15:28:15;100852.22;;;25.96;34.00
44825;BME280;30542;47.928;2.138;2022-07-15T15:33:15;100846.81;;;25.96;34.22
44825;BME280;30542;47.928;2.138;2022-07-15T15:38:16;100837.13;;;25.95;34.17
44825;BME280;30542;47.928;2.138;2022-07-15T15:43:16;100837.91;;;25.95;33.32
44825;BME280;30542;47.928;2.138;2022-07-15T15:48:17;100828.22;;;26.13;31.51
44825;BME280;30542;47.928;2.138;2022-07-15T15:53:18;100824.78;;;26.08;32.37
44825;BME280;30542;47.928;2.138;2022-07-15T15:58:18;100832.88;;;26.08;31.39
44825;BME280;30542;47.928;2.138;2022-07-15T16:03:18;100820.00;;;26.05;31.38
44825;BME280;30542;47.928;2.138;2022-07-15T16:08:19;100820.00;;;26.05;31.96
44825;BME280;30542;47.928;2.138;2022-07-15T16:13:19;100817.78;;;26.07;32.05
44825;BME280;30542;47.928;2.138;2022-07-15T16:18:20;100811.59;;;26.06;31.15
44825;BME280;30542;47.928;2.138;2022-07-15T16:23:20;100798.09;;;26.06;30.65
44825;BME280;30542;47.928;2.138;2022-07-15T16:28:20;100799.69;;;26.07;30.70
44825;BME280;30542;47.928;2.138;2022-07-15T16:33:21;100800.47;;;26.08;31.20
44825;BME280;30542;47.928;2.138;2022-07-15T16:38:21;100805.88;;;26.08;30.29
44825;BME280;30542;47.928;2.138;2022-07-15T16:43:23;100812.59;;;26.10;30.25
44825;BME280;30542;47.928;2.138;2022-07-15T16:48:23;100809.59;;;26.12;30.61
44825;BME280;30542;47.928;2.138;2022-07-15T16:53:23;100808.53;;;26.13;29.96
44825;BME280;30542;47.928;2.138;2022-07-15T16:58:24;100809.81;;;26.15;29.66
44825;BME280;30542;47.928;2.138;2022-07-15T17:03:24;100812.22;;;26.17;29.16
44825;BME280;30542;47.928;2.138;2022-07-15T17:08:25;100811.72;;;26.15;28.79
44825;BME280;30542;47.928;2.138;2022-07-15T17:13:25;100803.31;;;26.16;28.82
44825;BME280;30542;47.928;2.138;2022-07-15T17:18:25;100797.44;;;26.14;28.36
44825;BME280;30542;47.928;2.138;2022-07-15T17:23:29;100795.22;;;26.16;28.87
44825;BME280;30542;47.928;2.138;2022-07-15T17:28:29;100789.81;;;26.16;28.76
44825;BME280;30542;47.928;2.138;2022-07-15T17:33:30;100790.63;;;26.17;27.89
44825;BME280;30542;47.928;2.138;2022-07-15T17:38:30;100780.84;;;26.21;27.78
44825;BME280;30542;47.928;2.138;2022-07-15T17:43:31;100784.06;;;26.23;27.31
44825;BME280;30542;47.928;2.138;2022-07-15T17:48:31;100781.56;;;26.26;27.80
44825;BME280;30542;47.928;2.138;2022-07-15T17:53:32;100771.66;;;26.22;27.91
44825;BME280;30542;47.928;2.138;2022-07-15T17:58:33;100774.63;;;26.20;27.83
44825;BME280;30542;47.928;2.138;2022-07-15T18:03:33;100786.66;;;26.28;28.33
44825;BME280;30542;47.928;2.138;2022-07-15T18:08:33;100783.97;;;26.28;27.87
44825;BME280;30542;47.928;2.138;2022-07-15T18:13:34;100786.66;;;26.28;28.30
44825;BME280;30542;47.928;2.138;2022-07-15T18:18:34;100785.06;;;26.27;28.46
44825;BME280;30542;47.928;2.138;2022-07-15T18:23:35;100785.88;;;26.27;29.66
44825;BME280;30542;47.928;2.138;2022-07-15T18:28:35;100794.50;;;26.30;30.14
44825;BME280;30542;47.928;2.138;2022-07-15T18:33:36;100792.59;;;26.30;31.86
44825;BME280;30542;47.928;2.138;2022-07-15T18:38:36;100790.47;;;26.27;31.60
44825;BME280;30542;47.928;2.138;2022-07-15T18:43:39;100798.03;;;26.25;31.45
44825;BME280;30542;47.928;2.138;2022-07-15T18:48:40;100801.28;;;26.27;31.02
44825;BME280;30542;47.928;2.138;2022-07-15T18:53:41;100808.84;;;26.25;31.46
44825;BME280;30542;47.928;2.138;2022-07-15T18:58:41;100796.75;;;26.22;30.95
44825;BME280;30542;47.928;2.138;2022-07-15T19:03:42;100791.44;;;26.17;30.51
44825;BME280;30542;47.928;2.138;2022-07-15T19:08:42;100801.63;;;26.20;31.11
44825;BME280;30542;47.928;2.138;2022-07-15T19:13:43;100804.41;;;26.15;31.79
44825;BME280;30542;47.928;2.138;2022-07-15T19:18:44;100810.69;;;26.11;31.89
44825;BME280;30542;47.928;2.138;2022-07-15T19:23:45;100813.19;;;26.07;32.15
44825;BME280;30542;47.928;2.138;2022-07-15T19:28:45;100818.38;;;26.03;32.44
44825;BME280;30542;47.928;2.138;2022-07-15T19:33:46;100817.34;;;25.99;32.78
44825;BME280;30542;47.928;2.138;2022-07-15T19:38:46;100811.53;;;25.92;32.99
44825;BME280;30542;47.928;2.138;2022-07-15T19:43:47;100820.91;;;25.95;33.10
44825;BME280;30542;47.928;2.138;2022-07-15T19:48:47;100822.31;;;25.92;33.39
44825;BME280;30542;47.928;2.138;2022-07-15T19:53:47;100828.88;;;25.86;33.56
44825;BME280;30542;47.928;2.138;2022-07-15T19:58:48;100827.28;;;25.85;33.79
44825;BME280;30542;47.928;2.138;2022-07-15T20:03:48;100842.13;;;25.83;33.83
44825;BME280;30542;47.928;2.138;2022-07-15T20:08:48;100843.25;;;25.82;34.09
44825;BME280;30542;47.928;2.138;2022-07-15T20:13:49;100848.34;;;25.83;34.07
44825;BME280;30542;47.928;2.138;2022-07-15T20:18:49;100851.91;;;25.78;34.17
44825;BME280;30542;47.928;2.138;2022-07-15T20:23:50;100852.22;;;25.77;34.62
44825;BME280;30542;47.928;2.138;2022-07-15T20:28:50;100861.94;;;25.73;34.67
44825;BME280;30542;47.928;2.138;2022-07-15T20:33:51;100860.34;;;25.72;35.08
44825;BME280;30542;47.928;2.138;2022-07-15T20:38:51;100861.47;;;25.66;35.09
44825;BME280;30542;47.928;2.138;2022-07-15T20:43:52;100865.06;;;25.61;35.33
44825;BME280;30542;47.928;2.138;2022-07-15T20:48:52;100866.41;;;25.59;35.32
44825;BME280;30542;47.928;2.138;2022-07-15T20:53:53;100864.31;;;25.56;35.54
44825;BME280;30542;47.928;2.138;2022-07-15T20:58:53;100852.75;;;25.50;35.84
44825;BME280;30542;47.928;2.138;2022-07-15T21:03:54;100843.44;;;25.42;35.95
44825;BME280;30542;47.928;2.138;2022-07-15T21:08:54;100862.53;;;25.46;35.57
44825;BME280;30542;47.928;2.138;2022-07-15T21:13:55;100858.78;;;25.42;35.59
44825;BME280;30542;47.928;2.138;2022-07-15T21:18:55;100869.38;;;25.38;35.66
44825;BME280;30542;47.928;2.138;2022-07-15T21:23:56;100877.47;;;25.38;35.56
44825;BME280;30542;47.928;2.138;2022-07-15T21:28:56;100867.50;;;25.34;35.86
44825;BME280;30542;47.928;2.138;2022-07-15T21:33:57;100862.72;;;25.31;35.94
44825;BME280;30542;47.928;2.138;2022-07-15T21:38:57;100870.63;;;25.22;35.77
44825;BME280;30542;47.928;2.138;2022-07-15T21:43:57;100875.72;;;25.23;35.66
44825;BME280;30542;47.928;2.138;2022-07-15T21:48:58;100873.31;;;25.22;35.76
44825;BME280;30542;47.928;2.138;2022-07-15T21:53:59;100874.44;;;25.16;36.11
44825;BME280;30542;47.928;2.138;2022-07-15T21:58:59;100879.84;;;25.16;36.12
44825;BME280;30542;47.928;2.138;2022-07-15T22:04:00;100882.59;;;25.11;35.98
44825;BME280;30542;47.928;2.138;2022-07-15T22:09:03;100879.13;;;25.05;35.90
44825;BME280;30542;47.928;2.138;2022-07-15T22:14:04;100881.53;;;25.07;35.85
44825;BME280;30542;47.928;2.138;2022-07-15T22:19:05;100890.97;;;25.04;35.73
44825;BME280;30542;47.928;2.138;2022-07-15T22:24:05;100892.31;;;25.07;35.75
44825;BME280;30542;47.928;2.138;2022-07-15T22:29:06;100896.09;;;25.05;36.14
44825;BME280;30542;47.928;2.138;2022-07-15T22:34:06;100888.63;;;24.97;36.08
44825;BME280;30542;47.928;2.138;2022-07-15T22:39:06;100892.91;;;24.98;35.87
44825;BME280;30542;47.928;2.138;2022-07-15T22:44:07;100899.91;;;24.99;35.72
44825;BME280;30542;47.928;2.138;2022-07-15T22:49:09;100901.00;;;24.98;35.78
44825;BME280;30542;47.928;2.138;2022-07-15T22:54:09;100898.13;;;24.90;35.85
44825;BME280;30542;47.928;2.138;2022-07-15T22:59:09;100916.69;;;24.91;35.83
44825;BME280;30542;47.928;2.138;2022-07-15T23:04:12;100912.41;;;24.90;35.85
44825;BME280;30542;47.928;2.138;2022-07-15T23:09:13;100908.69;;;24.81;36.19
44825;BME280;30542;47.928;2.138;2022-07-15T23:14:13;100914.84;;;24.87;36.13
44825;BME280;30542;47.928;2.138;2022-07-15T23:19:13;100910.31;;;24.82;36.08
44825;BME280;30542;47.928;2.138;2022-07-15T23:24:14;100911.94;;;24.78;36.09
44825;BME280;30542;47.928;2.138;2022-07-15T23:29:14;100909.56;;;24.71;35.93
44825;BME280;30542;47.928;2.138;2022-07-15T23:34:15;100920.09;;;24.73;35.78
44825;BME280;30542;47.928;2.138;2022-07-15T23:39:16;100915.78;;;24.72;36.19
44825;BME280;30542;47.928;2.138;2022-07-15T23:44:16;100915.25;;;24.70;36.25
44825;BME280;30542;47.928;2.138;2022-07-15T23:49:17;100916.59;;;24.67;36.39
44825;BME280;30542;47.928;2.138;2022-07-15T23:54:18;100916.09;;;24.65;36.21
44825;BME280;30542;47.928;2.138;2022-07-15T23:59:18;100924.97;;;24.66;36.14
